sensor_id;sensor_type;location;lat;lon;timestamp;pressure;altitude;pressure_sealevel;temperature;humidity
61113;BME280;47184;57.998;56.184;2022-08-24T00:01:14;101549.66;;;18.71;60.59
61113;BME280;47184;57.998;56.184;2022-08-24T00:03:42;101546.97;;;18.71;60.72
61113;BME280;47184;57.998;56.184;2022-08-24T00:06:11;101541.63;;;18.63;60.79
61113;BME280;47184;57.998;56.184;2022-08-24T00:08:38;101518.00;;;18.43;60.75
61113;BME280;47184;57.998;56.184;2022-08-24T00:11:05;101527.50;;;18.46;61.05
61113;BME280;47184;57.998;56.184;2022-08-24T00:13:32;101541.50;;;18.56;61.08
61113;BME280;47184;57.998;56.184;2022-08-24T00:15:59;101507.00;;;18.38;61.01
61113;BME280;47184;57.998;56.184;2022-08-24T00:18:25;101525.97;;;18.51;60.97
61113;BME280;47184;57.998;56.184;2022-08-24T00:20:52;101515.00;;;18.38;61.11
61113;BME280;47184;57.998;56.184;2022-08-24T00:23:19;101541.19;;;18.51;60.82
61113;BME280;47184;57.998;56.184;2022-08-24T00:25:45;101539.38;;;18.43;61.10
61113;BME280;47184;57.998;56.184;2022-08-24T00:28:11;101546.63;;;18.35;61.36
61113;BME280;47184;57.998;56.184;2022-08-24T00:30:38;101504.28;;;18.07;61.37
61113;BME280;47184;57.998;56.184;2022-08-24T00:33:04;101541.66;;;18.23;61.39
61113;BME280;47184;57.998;56.184;2022-08-24T00:35:30;101521.81;;;18.10;61.69
61113;BME280;47184;57.998;56.184;2022-08-24T00:37:56;101524.97;;;18.13;61.74
61113;BME280;47184;57.998;56.184;2022-08-24T00:40:30;101546.34;;;18.21;61.91
61113;BME280;47184;57.998;56.184;2022-08-24T00:42:59;101526.97;;;18.11;61.84
61113;BME280;47184;57.998;56.184;2022-08-24T00:45:32;101538.34;;;18.13;61.81
61113;BME280;47184;57.998;56.184;2022-08-24T00:48:03;101518.69;;;17.98;62.03
61113;BME280;47184;57.998;56.184;2022-08-24T00:53:00;101515.66;;;18.01;61.81
61113;BME280;47184;57.998;56.184;2022-08-24T00:55:33;101531.31;;;18.12;62.05
61113;BME280;47184;57.998;56.184;2022-08-24T00:58:03;101535.00;;;18.11;61.92
61113;BME280;47184;57.998;56.184;2022-08-24T01:00:38;101544.38;;;18.07;62.02
61113;BME280;47184;57.998;56.184;2022-08-24T01:03:06;101534.38;;;18.01;62.00
61113;BME280;47184;57.998;56.184;2022-08-24T01:05:35;101520.69;;;17.88;62.07
61113;BME280;47184;57.998;56.184;2022-08-24T01:08:04;101539.72;;;18.01;62.10
61113;BME280;47184;57.998;56.184;2022-08-24T01:10:36;101533.06;;;17.97;62.35
61113;BME280;47184;57.998;56.184;2022-08-24T01:13:06;101492.81;;;17.74;62.41
61113;BME280;47184;57.998;56.184;2022-08-24T01:15:37;101504.66;;;17.88;62.45
61113;BME280;47184;57.998;56.184;2022-08-24T01:18:05;101544.56;;;18.05;62.57
61113;BME280;47184;57.998;56.184;2022-08-24T01:23:43;101535.53;;;18.06;62.15
61113;BME280;47184;57.998;56.184;2022-08-24T01:26:16;101540.88;;;18.06;62.68
61113;BME280;47184;57.998;56.184;2022-08-24T01:28:47;101496.34;;;17.82;62.40
61113;BME280;47184;57.998;56.184;2022-08-24T01:31:18;101492.53;;;17.77;62.38
61113;BME280;47184;57.998;56.184;2022-08-24T01:33:48;101540.72;;;18.00;62.46
61113;BME280;47184;57.998;56.184;2022-08-24T01:36:41;101507.72;;;17.68;62.46
61113;BME280;47184;57.998;56.184;2022-08-24T01:39:18;101540.09;;;17.90;62.51
61113;BME280;47184;57.998;56.184;2022-08-24T01:41:47;101549.94;;;17.89;62.72
61113;BME280;47184;57.998;56.184;2022-08-24T01:44:14;101514.41;;;17.64;63.09
61113;BME280;47184;57.998;56.184;2022-08-24T01:46:45;101549.63;;;17.92;63.14
61113;BME280;47184;57.998;56.184;2022-08-24T01:49:12;101556.75;;;18.00;63.18
61113;BME280;47184;57.998;56.184;2022-08-24T01:51:38;101554.25;;;17.98;63.47
61113;BME280;47184;57.998;56.184;2022-08-24T01:54:05;101543.25;;;17.93;63.59
61113;BME280;47184;57.998;56.184;2022-08-24T01:56:33;101545.25;;;17.91;63.75
61113;BME280;47184;57.998;56.184;2022-08-24T01:59:00;101553.94;;;17.93;63.78
61113;BME280;47184;57.998;56.184;2022-08-24T02:01:28;101551.28;;;17.93;63.80
61113;BME280;47184;57.998;56.184;2022-08-24T02:03:56;101556.44;;;17.95;63.75
61113;BME280;47184;57.998;56.184;2022-08-24T02:06:24;101551.91;;;18.03;63.64
61113;BME280;47184;57.998;56.184;2022-08-24T02:08:52;101558.41;;;18.09;63.53
61113;BME280;47184;57.998;56.184;2022-08-24T02:11:18;101555.53;;;18.19;63.18
61113;BME280;47184;57.998;56.184;2022-08-24T02:13:44;101529.97;;;18.16;63.00
61113;BME280;47184;57.998;56.184;2022-08-24T02:16:10;101523.16;;;18.14;63.28
61113;BME280;47184;57.998;56.184;2022-08-24T02:18:37;101549.69;;;18.15;63.52
61113;BME280;47184;57.998;56.184;2022-08-24T02:21:08;101547.56;;;18.02;63.93
61113;BME280;47184;57.998;56.184;2022-08-24T02:23:36;101546.75;;;17.94;64.11
61113;BME280;47184;57.998;56.184;2022-08-24T02:26:04;101539.75;;;17.93;64.53
61113;BME280;47184;57.998;56.184;2022-08-24T02:28:31;101553.09;;;18.01;64.24
61113;BME280;47184;57.998;56.184;2022-08-24T02:30:57;101552.69;;;18.12;64.27
61113;BME280;47184;57.998;56.184;2022-08-24T02:33:24;101534.81;;;18.21;64.01
61113;BME280;47184;57.998;56.184;2022-08-24T02:35:50;101552.56;;;18.45;63.86
61113;BME280;47184;57.998;56.184;2022-08-24T02:38:17;101557.53;;;18.56;63.46
61113;BME280;47184;57.998;56.184;2022-08-24T02:40:43;101525.97;;;18.51;63.35
61113;BME280;47184;57.998;56.184;2022-08-24T02:43:09;101562.50;;;18.75;63.22
61113;BME280;47184;57.998;56.184;2022-08-24T02:45:44;101551.31;;;18.72;63.66
61113;BME280;47184;57.998;56.184;2022-08-24T02:48:13;101556.34;;;18.67;63.66
61113;BME280;47184;57.998;56.184;2022-08-24T02:50:42;101563.69;;;18.65;63.90
61113;BME280;47184;57.998;56.184;2022-08-24T02:53:10;101561.84;;;18.65;64.08
61113;BME280;47184;57.998;56.184;2022-08-24T02:55:37;101558.00;;;18.68;63.83
61113;BME280;47184;57.998;56.184;2022-08-24T02:58:08;101564.50;;;18.65;64.25
61113;BME280;47184;57.998;56.184;2022-08-24T03:00:35;101561.84;;;18.65;64.51
61113;BME280;47184;57.998;56.184;2022-08-24T03:03:04;101528.16;;;18.48;64.14
61113;BME280;47184;57.998;56.184;2022-08-24T03:05:34;101562.16;;;18.78;64.33
61113;BME280;47184;57.998;56.184;2022-08-24T03:08:00;101564.09;;;18.85;64.22
61113;BME280;47184;57.998;56.184;2022-08-24T03:10:26;101515.22;;;18.60;64.33
61113;BME280;47184;57.998;56.184;2022-08-24T03:12:53;101529.25;;;18.70;64.34
61113;BME280;47184;57.998;56.184;2022-08-24T03:15:20;101562.69;;;18.97;64.17
61113;BME280;47184;57.998;56.184;2022-08-24T03:17:48;101522.88;;;18.71;64.38
61113;BME280;47184;57.998;56.184;2022-08-24T03:20:19;101553.84;;;18.96;63.93
61113;BME280;47184;57.998;56.184;2022-08-24T03:23:04;101568.41;;;19.17;63.91
61113;BME280;47184;57.998;56.184;2022-08-24T03:25:31;101558.19;;;19.20;63.88
61113;BME280;47184;57.998;56.184;2022-08-24T03:27:57;101565.13;;;19.29;63.59
61113;BME280;47184;57.998;56.184;2022-08-24T03:30:24;101571.63;;;19.35;63.52
61113;BME280;47184;57.998;56.184;2022-08-24T03:32:50;101538.31;;;19.15;63.26
61113;BME280;47184;57.998;56.184;2022-08-24T03:35:17;101550.13;;;19.43;62.99
61113;BME280;47184;57.998;56.184;2022-08-24T03:37:43;101563.50;;;19.66;62.51
61113;BME280;47184;57.998;56.184;2022-08-24T03:40:11;101563.53;;;19.81;62.17
61113;BME280;47184;57.998;56.184;2022-08-24T03:42:38;101517.38;;;19.56;62.11
61113;BME280;47184;57.998;56.184;2022-08-24T03:45:05;101541.63;;;19.77;61.85
61113;BME280;47184;57.998;56.184;2022-08-24T03:47:32;101547.38;;;19.89;61.66
61113;BME280;47184;57.998;56.184;2022-08-24T03:50:00;101570.69;;;20.18;61.28
61113;BME280;47184;57.998;56.184;2022-08-24T03:52:27;101572.59;;;20.24;60.96
61113;BME280;47184;57.998;56.184;2022-08-24T03:54:54;101542.91;;;20.11;60.63
61113;BME280;47184;57.998;56.184;2022-08-24T03:57:20;101568.16;;;20.32;60.39
61113;BME280;47184;57.998;56.184;2022-08-24T03:59:46;101566.78;;;20.36;60.20
61113;BME280;47184;57.998;56.184;2022-08-24T04:02:12;101558.47;;;20.31;60.12
61113;BME280;47184;57.998;56.184;2022-08-24T04:04:38;101567.03;;;20.41;59.92
61113;BME280;47184;57.998;56.184;2022-08-24T04:07:04;101567.50;;;20.44;59.82
61113;BME280;47184;57.998;56.184;2022-08-24T04:09:32;101544.22;;;20.30;59.53
61113;BME280;47184;57.998;56.184;2022-08-24T04:11:58;101524.09;;;20.41;59.34
61113;BME280;47184;57.998;56.184;2022-08-24T04:14:25;101557.75;;;20.73;58.96
61113;BME280;47184;57.998;56.184;2022-08-24T04:16:55;101543.50;;;20.72;58.68
61113;BME280;47184;57.998;56.184;2022-08-24T04:19:27;101576.84;;;20.99;58.68
61113;BME280;47184;57.998;56.184;2022-08-24T04:21:55;101557.72;;;20.88;58.49
61113;BME280;47184;57.998;56.184;2022-08-24T04:24:24;101573.78;;;21.02;58.32
61113;BME280;47184;57.998;56.184;2022-08-24T04:26:52;101531.91;;;20.87;58.00
61113;BME280;47184;57.998;56.184;2022-08-24T04:29:19;101526.97;;;20.90;58.21
61113;BME280;47184;57.998;56.184;2022-08-24T04:31:52;101562.34;;;21.15;57.96
61113;BME280;47184;57.998;56.184;2022-08-24T04:34:19;101568.22;;;21.25;57.83
61113;BME280;47184;57.998;56.184;2022-08-24T04:36:46;101559.41;;;21.32;58.08
61113;BME280;47184;57.998;56.184;2022-08-24T04:39:12;101552.63;;;21.36;58.02
61113;BME280;47184;57.998;56.184;2022-08-24T04:42:04;101563.03;;;21.45;57.89
61113;BME280;47184;57.998;56.184;2022-08-24T04:44:35;101550.25;;;21.47;57.77
61113;BME280;47184;57.998;56.184;2022-08-24T04:47:02;101553.72;;;21.69;57.48
61113;BME280;47184;57.998;56.184;2022-08-24T04:49:29;101512.03;;;21.52;57.45
61113;BME280;47184;57.998;56.184;2022-08-24T04:51:55;101556.78;;;21.94;57.07
61113;BME280;47184;57.998;56.184;2022-08-24T04:54:21;101542.13;;;22.04;56.37
61113;BME280;47184;57.998;56.184;2022-08-24T04:56:59;101546.41;;;22.19;56.06
61113;BME280;47184;57.998;56.184;2022-08-24T04:59:25;101519.88;;;22.16;56.20
61113;BME280;47184;57.998;56.184;2022-08-24T05:01:52;101540.72;;;22.42;56.00
61113;BME280;47184;57.998;56.184;2022-08-24T05:04:18;101500.44;;;22.14;55.46
61113;BME280;47184;57.998;56.184;2022-08-24T05:06:44;101503.16;;;22.28;55.15
61113;BME280;47184;57.998;56.184;2022-08-24T05:09:10;101553.41;;;22.62;55.30
61113;BME280;47184;57.998;56.184;2022-08-24T05:11:37;101505.94;;;22.47;55.24
61113;BME280;47184;57.998;56.184;2022-08-24T05:14:09;101554.69;;;22.86;54.76
61113;BME280;47184;57.998;56.184;2022-08-24T05:16:35;101556.84;;;22.90;54.73
61113;BME280;47184;57.998;56.184;2022-08-24T05:19:04;101556.84;;;22.97;54.30
61113;BME280;47184;57.998;56.184;2022-08-24T05:21:32;101537.97;;;22.97;54.36
61113;BME280;47184;57.998;56.184;2022-08-24T05:23:59;101548.38;;;23.20;53.90
61113;BME280;47184;57.998;56.184;2022-08-24T05:26:30;101549.84;;;23.36;53.82
61113;BME280;47184;57.998;56.184;2022-08-24T05:28:58;101528.69;;;23.39;53.48
61113;BME280;47184;57.998;56.184;2022-08-24T05:31:31;101536.56;;;23.74;52.80
61113;BME280;47184;57.998;56.184;2022-08-24T05:34:02;101551.84;;;24.13;52.26
61113;BME280;47184;57.998;56.184;2022-08-24T05:36:32;101542.75;;;24.53;51.25
61113;BME280;47184;57.998;56.184;2022-08-24T05:39:00;101540.88;;;24.91;50.68
61113;BME280;47184;57.998;56.184;2022-08-24T05:41:28;101537.03;;;25.37;49.53
61113;BME280;47184;57.998;56.184;2022-08-24T05:44:04;101540.22;;;25.78;48.85
61113;BME280;47184;57.998;56.184;2022-08-24T05:46:31;101529.09;;;26.23;47.94
61113;BME280;47184;57.998;56.184;2022-08-24T05:48:58;101524.59;;;26.65;46.51
61113;BME280;47184;57.998;56.184;2022-08-24T05:51:30;101505.66;;;27.30;45.18
61113;BME280;47184;57.998;56.184;2022-08-24T05:54:02;101503.88;;;27.71;43.94
61113;BME280;47184;57.998;56.184;2022-08-24T05:56:41;101536.38;;;28.30;42.87
61113;BME280;47184;57.998;56.184;2022-08-24T05:59:07;101529.75;;;28.95;41.74
61113;BME280;47184;57.998;56.184;2022-08-24T06:01:35;101522.00;;;29.54;40.43
61113;BME280;47184;57.998;56.184;2022-08-24T06:04:02;101525.06;;;30.40;39.68
61113;BME280;47184;57.998;56.184;2022-08-24T06:06:29;101532.84;;;31.07;38.20
61113;BME280;47184;57.998;56.184;2022-08-24T06:08:58;101495.69;;;31.06;37.20
61113;BME280;47184;57.998;56.184;2022-08-24T06:11:29;101531.06;;;31.66;36.13
61113;BME280;47184;57.998;56.184;2022-08-24T06:14:06;101529.66;;;32.05;35.05
61113;BME280;47184;57.998;56.184;2022-08-24T06:16:39;101500.72;;;32.15;35.29
61113;BME280;47184;57.998;56.184;2022-08-24T06:19:08;101523.34;;;33.24;33.66
61113;BME280;47184;57.998;56.184;2022-08-24T06:21:35;101530.41;;;33.66;32.58
61113;BME280;47184;57.998;56.184;2022-08-24T06:24:03;101524.03;;;33.86;32.44
61113;BME280;47184;57.998;56.184;2022-08-24T06:26:32;101514.78;;;34.31;31.62
61113;BME280;47184;57.998;56.184;2022-08-24T06:29:18;101515.19;;;34.93;30.98
61113;BME280;47184;57.998;56.184;2022-08-24T06:31:48;101529.22;;;34.91;29.66
61113;BME280;47184;57.998;56.184;2022-08-24T06:34:16;101516.13;;;34.83;29.95
61113;BME280;47184;57.998;56.184;2022-08-24T06:36:43;101492.38;;;35.27;29.54
61113;BME280;47184;57.998;56.184;2022-08-24T06:39:10;101514.84;;;36.30;28.59
61113;BME280;47184;57.998;56.184;2022-08-24T06:41:43;101483.19;;;36.51;27.76
61113;BME280;47184;57.998;56.184;2022-08-24T06:44:13;101517.47;;;36.91;27.66
61113;BME280;47184;57.998;56.184;2022-08-24T06:47:02;101508.47;;;37.18;27.19
61113;BME280;47184;57.998;56.184;2022-08-24T06:49:33;101512.16;;;37.14;26.63
61113;BME280;47184;57.998;56.184;2022-08-24T06:52:05;101521.00;;;37.11;26.56
61113;BME280;47184;57.998;56.184;2022-08-24T06:54:32;101509.09;;;36.83;26.82
61113;BME280;47184;57.998;56.184;2022-08-24T06:57:00;101515.13;;;37.31;26.36
61113;BME280;47184;57.998;56.184;2022-08-24T06:59:27;101463.22;;;37.94;25.49
61113;BME280;47184;57.998;56.184;2022-08-24T07:01:55;101501.84;;;38.16;25.25
61113;BME280;47184;57.998;56.184;2022-08-24T07:04:24;101497.75;;;38.27;25.22
61113;BME280;47184;57.998;56.184;2022-08-24T07:07:23;101507.50;;;39.14;24.20
61113;BME280;47184;57.998;56.184;2022-08-24T07:09:49;101505.25;;;39.17;23.85
61113;BME280;47184;57.998;56.184;2022-08-24T07:12:17;101507.03;;;38.68;24.14
61113;BME280;47184;57.998;56.184;2022-08-24T07:14:44;101492.53;;;38.39;24.21
61113;BME280;47184;57.998;56.184;2022-08-24T07:17:10;101496.41;;;38.61;24.01
61113;BME280;47184;57.998;56.184;2022-08-24T07:19:37;101507.56;;;39.23;23.31
61113;BME280;47184;57.998;56.184;2022-08-24T07:22:04;101500.94;;;39.02;23.40
61113;BME280;47184;57.998;56.184;2022-08-24T07:24:31;101499.31;;;39.01;23.05
61113;BME280;47184;57.998;56.184;2022-08-24T07:26:59;101500.00;;;39.15;23.29
61113;BME280;47184;57.998;56.184;2022-08-24T07:29:25;101502.44;;;39.96;22.38
61113;BME280;47184;57.998;56.184;2022-08-24T07:31:51;101497.78;;;40.75;21.76
61113;BME280;47184;57.998;56.184;2022-08-24T07:34:32;101493.06;;;40.23;22.10
61113;BME280;47184;57.998;56.184;2022-08-24T07:36:59;101464.56;;;40.31;22.08
61113;BME280;47184;57.998;56.184;2022-08-24T07:39:26;101484.78;;;40.15;22.19
61113;BME280;47184;57.998;56.184;2022-08-24T07:41:53;101468.78;;;39.37;22.78
61113;BME280;47184;57.998;56.184;2022-08-24T07:44:19;101486.16;;;39.69;22.19
61113;BME280;47184;57.998;56.184;2022-08-24T07:46:46;101484.75;;;40.06;21.68
61113;BME280;47184;57.998;56.184;2022-08-24T07:49:14;101487.69;;;40.62;21.30
61113;BME280;47184;57.998;56.184;2022-08-24T07:51:40;101484.81;;;41.14;21.07
61113;BME280;47184;57.998;56.184;2022-08-24T07:54:07;101477.88;;;41.67;20.34
61113;BME280;47184;57.998;56.184;2022-08-24T07:56:42;101477.09;;;42.71;19.60
61113;BME280;47184;57.998;56.184;2022-08-24T07:59:08;101463.19;;;43.28;19.12
61113;BME280;47184;57.998;56.184;2022-08-24T08:01:35;101463.13;;;42.46;19.70
61113;BME280;47184;57.998;56.184;2022-08-24T08:04:01;101470.72;;;41.66;19.98
61113;BME280;47184;57.998;56.184;2022-08-24T08:06:28;101449.78;;;41.39;20.62
61113;BME280;47184;57.998;56.184;2022-08-24T08:09:00;101455.41;;;42.10;19.94
61113;BME280;47184;57.998;56.184;2022-08-24T08:11:28;101426.47;;;42.32;19.61
61113;BME280;47184;57.998;56.184;2022-08-24T08:13:54;101413.47;;;43.15;18.98
61113;BME280;47184;57.998;56.184;2022-08-24T08:16:21;101443.38;;;44.07;18.10
61113;BME280;47184;57.998;56.184;2022-08-24T08:18:47;101435.88;;;43.83;17.82
61113;BME280;47184;57.998;56.184;2022-08-24T08:21:13;101456.34;;;43.26;18.53
61113;BME280;47184;57.998;56.184;2022-08-24T08:24:00;101452.13;;;42.62;19.13
61113;BME280;47184;57.998;56.184;2022-08-24T08:26:49;101436.56;;;42.37;19.03
61113;BME280;47184;57.998;56.184;2022-08-24T08:29:24;101439.06;;;42.09;19.44
61113;BME280;47184;57.998;56.184;2022-08-24T08:31:52;101420.13;;;42.65;19.02
61113;BME280;47184;57.998;56.184;2022-08-24T08:34:20;101436.38;;;42.87;18.69
61113;BME280;47184;57.998;56.184;2022-08-24T08:36:47;101435.44;;;42.50;18.62
61113;BME280;47184;57.998;56.184;2022-08-24T08:39:17;101401.50;;;42.77;18.45
61113;BME280;47184;57.998;56.184;2022-08-24T08:47:56;101420.06;;;43.47;17.90
61113;BME280;47184;57.998;56.184;2022-08-24T09:07:30;101369.50;;;42.14;18.71
61113;BME280;47184;57.998;56.184;2022-08-24T09:10:54;101421.34;;;42.55;19.04
61113;BME280;47184;57.998;56.184;2022-08-24T09:19:25;101410.66;;;41.70;19.51
61113;BME280;47184;57.998;56.184;2022-08-24T09:22:15;101389.94;;;41.67;19.41
61113;BME280;47184;57.998;56.184;2022-08-24T09:27:54;101409.00;;;42.65;18.61
61113;BME280;47184;57.998;56.184;2022-08-24T09:30:34;101377.88;;;42.05;18.90
61113;BME280;47184;57.998;56.184;2022-08-24T09:33:15;101407.53;;;42.67;18.67
61113;BME280;47184;57.998;56.184;2022-08-24T09:39:03;101357.69;;;44.76;16.60
61113;BME280;47184;57.998;56.184;2022-08-24T09:47:51;101397.16;;;44.94;16.85
61113;BME280;47184;57.998;56.184;2022-08-24T09:50:38;101392.72;;;45.25;16.38
61113;BME280;47184;57.998;56.184;2022-08-24T09:53:40;101392.03;;;45.82;15.58
61113;BME280;47184;57.998;56.184;2022-08-24T10:08:12;101384.00;;;45.26;15.23
61113;BME280;47184;57.998;56.184;2022-08-24T10:22:20;101352.19;;;46.47;13.81
61113;BME280;47184;57.998;56.184;2022-08-24T10:27:54;101348.63;;;46.96;13.80
61113;BME280;47184;57.998;56.184;2022-08-24T10:37:33;101362.34;;;45.39;14.73
61113;BME280;47184;57.998;56.184;2022-08-24T10:54:47;101328.25;;;46.96;13.70
61113;BME280;47184;57.998;56.184;2022-08-24T10:57:37;101341.50;;;47.02;13.65
61113;BME280;47184;57.998;56.184;2022-08-24T11:00:13;101323.84;;;47.55;13.14
61113;BME280;47184;57.998;56.184;2022-08-24T11:02:42;101344.28;;;47.59;13.24
61113;BME280;47184;57.998;56.184;2022-08-24T11:05:12;101331.44;;;46.98;13.38
61113;BME280;47184;57.998;56.184;2022-08-24T11:08:03;101312.00;;;46.82;13.47
61113;BME280;47184;57.998;56.184;2022-08-24T11:10:34;101327.28;;;47.14;13.32
61113;BME280;47184;57.998;56.184;2022-08-24T11:13:37;101287.69;;;46.86;13.25
61113;BME280;47184;57.998;56.184;2022-08-24T11:16:39;101298.53;;;46.61;13.50
61113;BME280;47184;57.998;56.184;2022-08-24T11:19:08;101320.59;;;46.01;13.82
61113;BME280;47184;57.998;56.184;2022-08-24T11:27:08;101328.22;;;46.23;14.10
61113;BME280;47184;57.998;56.184;2022-08-24T11:32:31;101316.25;;;45.26;14.81
61113;BME280;47184;57.998;56.184;2022-08-24T11:35:06;101307.66;;;45.34;14.55
61113;BME280;47184;57.998;56.184;2022-08-24T11:37:37;101305.13;;;45.45;14.57
61113;BME280;47184;57.998;56.184;2022-08-24T11:40:06;101305.22;;;45.13;14.78
61113;BME280;47184;57.998;56.184;2022-08-24T11:50:39;101272.09;;;44.61;14.46
61113;BME280;47184;57.998;56.184;2022-08-24T11:56:24;101283.63;;;44.75;15.15
61113;BME280;47184;57.998;56.184;2022-08-24T12:01:58;101292.34;;;45.44;14.59
61113;BME280;47184;57.998;56.184;2022-08-24T12:04:51;101280.66;;;45.58;14.15
61113;BME280;47184;57.998;56.184;2022-08-24T12:07:44;101284.75;;;45.25;14.27
61113;BME280;47184;57.998;56.184;2022-08-24T12:18:54;101272.31;;;44.36;14.71
61113;BME280;47184;57.998;56.184;2022-08-24T12:21:27;101254.56;;;43.53;15.32
61113;BME280;47184;57.998;56.184;2022-08-24T12:24:08;101268.34;;;43.78;15.40
61113;BME280;47184;57.998;56.184;2022-08-24T12:26:42;101268.03;;;43.95;15.63
61113;BME280;47184;57.998;56.184;2022-08-24T12:31:58;101234.34;;;43.28;15.85
61113;BME280;47184;57.998;56.184;2022-08-24T12:34:44;101260.63;;;43.31;15.80
61113;BME280;47184;57.998;56.184;2022-08-24T12:37:45;101242.31;;;42.77;16.15
61113;BME280;47184;57.998;56.184;2022-08-24T12:40:28;101246.72;;;42.66;16.37
61113;BME280;47184;57.998;56.184;2022-08-24T12:45:37;101222.41;;;42.38;16.66
61113;BME280;47184;57.998;56.184;2022-08-24T12:57:11;101240.19;;;42.37;16.86
61113;BME280;47184;57.998;56.184;2022-08-24T13:00:00;101193.75;;;41.89;16.96
61113;BME280;47184;57.998;56.184;2022-08-24T13:02:36;101238.25;;;41.92;16.77
61113;BME280;47184;57.998;56.184;2022-08-24T13:05:10;101234.00;;;41.62;17.41
61113;BME280;47184;57.998;56.184;2022-08-24T13:07:43;101228.00;;;41.18;17.35
61113;BME280;47184;57.998;56.184;2022-08-24T13:10:38;101240.09;;;40.63;17.79
61113;BME280;47184;57.998;56.184;2022-08-24T13:13:15;101234.25;;;40.55;18.38
61113;BME280;47184;57.998;56.184;2022-08-24T13:30:56;101228.81;;;38.73;19.89
61113;BME280;47184;57.998;56.184;2022-08-24T13:35:55;101228.38;;;38.80;19.96
61113;BME280;47184;57.998;56.184;2022-08-24T13:41:04;101201.69;;;37.96;20.60
61113;BME280;47184;57.998;56.184;2022-08-24T13:56:29;101225.97;;;36.16;22.71
61113;BME280;47184;57.998;56.184;2022-08-24T13:59:14;101213.78;;;35.70;23.65
61113;BME280;47184;57.998;56.184;2022-08-24T14:02:02;101191.25;;;35.17;23.95
61113;BME280;47184;57.998;56.184;2022-08-24T14:04:51;101209.75;;;35.11;23.99
61113;BME280;47184;57.998;56.184;2022-08-24T14:07:51;101210.50;;;34.93;24.60
61113;BME280;47184;57.998;56.184;2022-08-24T14:15:58;101209.22;;;34.37;25.86
61113;BME280;47184;57.998;56.184;2022-08-24T14:19:08;101203.03;;;34.26;25.84
61113;BME280;47184;57.998;56.184;2022-08-24T14:21:47;101169.06;;;33.93;25.99
61113;BME280;47184;57.998;56.184;2022-08-24T14:24:39;101156.13;;;33.70;26.21
61113;BME280;47184;57.998;56.184;2022-08-24T14:27:36;101206.94;;;33.86;26.60
61113;BME280;47184;57.998;56.184;2022-08-24T14:39:04;101188.34;;;33.04;27.75
61113;BME280;47184;57.998;56.184;2022-08-24T14:41:53;101188.38;;;32.89;27.84
61113;BME280;47184;57.998;56.184;2022-08-24T14:44:45;101200.72;;;32.87;28.32
61113;BME280;47184;57.998;56.184;2022-08-24T14:50:16;101202.47;;;32.62;29.02
61113;BME280;47184;57.998;56.184;2022-08-24T14:53:17;101175.16;;;32.31;29.41
61113;BME280;47184;57.998;56.184;2022-08-24T14:56:14;101160.75;;;32.05;29.71
61113;BME280;47184;57.998;56.184;2022-08-24T14:59:12;101183.44;;;32.06;30.02
61113;BME280;47184;57.998;56.184;2022-08-24T15:01:45;101161.31;;;31.87;29.96
61113;BME280;47184;57.998;56.184;2022-08-24T15:04:29;101206.38;;;31.95;31.04
61113;BME280;47184;57.998;56.184;2022-08-24T15:09:48;101180.94;;;31.38;31.46
61113;BME280;47184;57.998;56.184;2022-08-24T15:14:57;101200.84;;;31.33;32.75
61113;BME280;47184;57.998;56.184;2022-08-24T15:25:16;101206.84;;;30.68;34.33
61113;BME280;47184;57.998;56.184;2022-08-24T15:28:06;101190.38;;;30.42;34.47
61113;BME280;47184;57.998;56.184;2022-08-24T15:30:38;101157.94;;;30.08;34.62
61113;BME280;47184;57.998;56.184;2022-08-24T15:33:19;101141.59;;;29.66;35.36
61113;BME280;47184;57.998;56.184;2022-08-24T15:36:10;101205.53;;;29.96;35.77
61113;BME280;47184;57.998;56.184;2022-08-24T15:38:38;101205.97;;;29.82;35.70
61113;BME280;47184;57.998;56.184;2022-08-24T15:43:32;101171.97;;;29.31;36.63
61113;BME280;47184;57.998;56.184;2022-08-24T15:46:02;101218.97;;;29.48;36.62
61113;BME280;47184;57.998;56.184;2022-08-24T15:48:34;101141.22;;;28.81;36.88
61113;BME280;47184;57.998;56.184;2022-08-24T15:51:00;101204.19;;;29.12;37.25
61113;BME280;47184;57.998;56.184;2022-08-24T15:53:32;101214.25;;;29.11;37.42
61113;BME280;47184;57.998;56.184;2022-08-24T15:58:46;101101.00;;;28.18;37.40
61113;BME280;47184;57.998;56.184;2022-08-24T16:04:02;101229.84;;;28.60;37.99
61113;BME280;47184;57.998;56.184;2022-08-24T16:09:03;101211.28;;;28.35;38.26
61113;BME280;47184;57.998;56.184;2022-08-24T16:11:37;101224.53;;;28.32;38.67
61113;BME280;47184;57.998;56.184;2022-08-24T16:16:54;101228.00;;;28.10;38.97
61113;BME280;47184;57.998;56.184;2022-08-24T16:19:33;101221.50;;;27.95;39.13
61113;BME280;47184;57.998;56.184;2022-08-24T16:22:03;101219.94;;;27.82;39.97
61113;BME280;47184;57.998;56.184;2022-08-24T16:24:34;101217.00;;;27.72;39.67
61113;BME280;47184;57.998;56.184;2022-08-24T16:27:13;101170.31;;;27.24;40.27
61113;BME280;47184;57.998;56.184;2022-08-24T16:32:21;101187.53;;;27.18;40.38
61113;BME280;47184;57.998;56.184;2022-08-24T16:37:20;101191.47;;;26.99;40.27
61113;BME280;47184;57.998;56.184;2022-08-24T16:39:47;101218.09;;;27.02;40.77
61113;BME280;47184;57.998;56.184;2022-08-24T16:42:23;101219.59;;;27.09;41.13
61113;BME280;47184;57.998;56.184;2022-08-24T16:44:51;101223.75;;;27.00;41.09
61113;BME280;47184;57.998;56.184;2022-08-24T16:47:18;101144.94;;;26.38;41.29
61113;BME280;47184;57.998;56.184;2022-08-24T16:49:44;101129.63;;;26.20;41.93